Snow/Ice From: 17-12-2018 09:00 Until: 17:00 warning for: Snow/Ice Level: Yellow info button
suomi:
Liikennesää: Ajokeli muuttuu huonoksi päivällä lumisateen vuoksi.

svenska:
Trafikvädret: Väglaget blir dåligt på dagen p.g.a. snöfall.

english:
Traffic weather warning: Bad road conditions are expected at noon and in the afternoon because of snow. 


Thunder radar more information blitzortung!


Löydät sääaseman tiedot myös:

European Weather Network

Finland Weather Exchange

Weather Underground

AWEKAS



Weather Underground säähistoriasivu

Päivittäin yhteenveto Huhtikuu 4, 2017 Yksiköt:  Englantilaiset    Metriset   Molemmat
« Edellinen Päivä
Seuraava Päivä »
Päivittäin Viikoittain Kuukausittain Vuosittain Mukautettu
  Korkea: Matala: Keskiarvo:
Lämpötila: TemperatureC °F 1.3 °F 4.3 °F
Kastepiste: DewpointC °F -0.4 °F 2 °F
Kosteus: Humidity % 70 % 84 %
Tuulen nopeus: WindSpeedKMH mph 4.8 mph 11.1 mph
Tuulenpuuska: WindSpeedGustKMH mph - -
Tuuli:- - SSW
Ilmanpaine: PressurehPa in 1006.3 in -
Sade: 0.0 in    
Historical Graphs
 
 
Taulukkotiedot Huhtikuu 4, 2017
Aika Lämpötila Kastepiste Ilmanpaine Tuuli Tuulen nopeus Tuulenpuuska Kosteus Sademäärä (tunneittain)
TemperatureC °F DewpointC °F PressurehPa in Calm     Humidity % HourlyPrecipMM in
00:00 1.3 °F -0.2 °F 1019.9 in SSW 8.0 mph 14.5 mph 90 % 0.0 in
00:15 1.3 °F -0.1 °F 1019.5 in SSW 8.0 mph 22.5 mph 90 % 0.0 in
00:30 1.3 °F -0.3 °F 1019.5 in SSW 8.0 mph 16.1 mph 89 % 0.0 in
00:45 1.4 °F -0.2 °F 1019.5 in SSW 6.4 mph 19.3 mph 89 % 0.0 in
01:00 1.5 °F -0.4 °F 1019.2 in SSW 8.0 mph 20.9 mph 87 % 0.0 in
01:15 1.5 °F -0.4 °F 1019.2 in SSW 11.3 mph 22.5 mph 87 % 0.0 in
01:30 1.6 °F -0.4 °F 1018.8 in SSW 11.3 mph 17.7 mph 87 % 0.0 in
01:45 1.5 °F -0.4 °F 1018.8 in SSW 8.0 mph 17.7 mph 87 % 0.0 in
02:00 1.5 °F -0.3 °F 1018.8 in SSW 8.0 mph 14.5 mph 88 % 0.0 in
02:15 1.6 °F -0.2 °F 1018.5 in SSW 8.0 mph 20.9 mph 88 % 0.0 in
02:30 1.7 °F 0.0 °F 1018.5 in SSW 8.0 mph 19.3 mph 89 % 0.0 in
02:45 1.7 °F 0.3 °F 1018.5 in SSW 8.0 mph 19.3 mph 90 % 0.0 in
03:00 1.7 °F 0.3 °F 1018.2 in SSW 8.0 mph 16.1 mph 90 % 0.0 in
03:15 1.7 °F 0.4 °F 1018.2 in SSW 6.4 mph 16.1 mph 91 % 0.0 in
03:30 1.7 °F 0.4 °F 1017.8 in SSW 6.4 mph 17.7 mph 91 % 0.0 in
03:45 1.7 °F 0.5 °F 1017.8 in SSW 6.4 mph 16.1 mph 92 % 0.0 in
04:00 1.8 °F 0.6 °F 1017.8 in SSW 8.0 mph 16.1 mph 92 % 0.0 in
04:15 1.8 °F 0.7 °F 1017.8 in SSW 8.0 mph 16.1 mph 92 % 0.0 in
04:30 1.9 °F 0.9 °F 1017.5 in SSW 8.0 mph 17.7 mph 93 % 0.0 in
04:45 1.9 °F 0.9 °F 1017.5 in SSW 8.0 mph 16.1 mph 93 % 0.0 in
05:00 1.9 °F 0.9 °F 1017.2 in SSW 4.8 mph 12.9 mph 93 % 0.0 in
05:15 2.1 °F 1.0 °F 1017.2 in SSW 9.7 mph 19.3 mph 93 % 0.0 in
05:30 2.1 °F 1.0 °F 1017.2 in SSW 6.4 mph 20.9 mph 93 % 0.0 in
05:45 2.1 °F 1.2 °F 1016.8 in SSW 8.0 mph 20.9 mph 94 % 0.0 in
06:00 2.1 °F 1.2 °F 1016.5 in SSW 6.4 mph 17.7 mph 94 % 0.0 in
06:15 2.2 °F 1.3 °F 1016.5 in SSW 6.4 mph 14.5 mph 94 % 0.0 in
06:30 2.3 °F 1.4 °F 1016.5 in SSW 6.4 mph 16.1 mph 94 % 0.0 in
06:45 2.3 °F 1.6 °F 1016.1 in South 6.4 mph 17.7 mph 95 % 0.0 in
07:00 2.3 °F 1.6 °F 1016.1 in SSW 6.4 mph 19.3 mph 95 % 0.0 in
07:15 2.6 °F 1.8 °F 1015.8 in SSW 8.0 mph 20.9 mph 95 % 0.0 in
07:30 2.8 °F 2.1 °F 1015.8 in SSW 8.0 mph 22.5 mph 95 % 0.0 in
07:45 2.9 °F 2.2 °F 1015.5 in SSW 9.7 mph 22.5 mph 95 % 0.0 in
08:00 3.1 °F 2.4 °F 1015.5 in SSW 8.0 mph 17.7 mph 95 % 0.0 in
08:15 3.2 °F 2.5 °F 1015.5 in SSW 9.7 mph 24.1 mph 95 % 0.0 in
08:30 3.3 °F 2.6 °F 1015.1 in SSW 9.7 mph 19.3 mph 95 % 0.0 in
08:45 3.4 °F 2.7 °F 1015.1 in SSW 8.0 mph 17.7 mph 95 % 0.0 in
09:00 3.4 °F 2.7 °F 1014.8 in SSW 8.0 mph 16.1 mph 95 % 0.0 in
09:15 3.6 °F 2.8 °F 1014.8 in SSW 6.4 mph 16.1 mph 95 % 0.0 in
09:30 3.7 °F 2.8 °F 1014.8 in SSW 6.4 mph 19.3 mph 94 % 0.0 in
09:45 3.8 °F 3.0 °F 1014.8 in SSW 9.7 mph 22.5 mph 94 % 0.0 in
10:00 3.9 °F 2.9 °F 1014.8 in SSW 11.3 mph 22.5 mph 93 % 0.0 in
10:15 4.0 °F 3.0 °F 1014.8 in SSW 8.0 mph 19.3 mph 93 % 0.0 in
10:30 3.9 °F 2.8 °F 1014.8 in SSW 12.9 mph 29.0 mph 92 % 0.0 in
10:45 4.1 °F 2.9 °F 1014.4 in SSW 11.3 mph 24.1 mph 92 % 0.0 in
11:00 4.1 °F 2.8 °F 1014.4 in SSW 11.3 mph 20.9 mph 91 % 0.0 in
11:15 3.9 °F 2.5 °F 1014.1 in South 11.3 mph 27.4 mph 90 % 0.0 in
11:30 4.1 °F 2.5 °F 1013.8 in SSW 14.5 mph 27.4 mph 89 % 0.0 in
11:45 4.7 °F 2.7 °F 1013.8 in SSW 12.9 mph 38.6 mph 87 % 0.0 in
12:00 5.2 °F 2.9 °F 1013.4 in SSW 14.5 mph 35.4 mph 85 % 0.0 in
12:15 5.8 °F 2.9 °F 1013.4 in SSW 14.5 mph 30.6 mph 82 % 0.0 in
12:30 6.2 °F 2.8 °F 1013.1 in SSW 14.5 mph 32.2 mph 79 % 0.0 in
12:45 7.0 °F 3.1 °F 1012.8 in SSW 12.9 mph 27.4 mph 76 % 0.0 in
13:00 7.4 °F 3.1 °F 1012.8 in SSW 12.9 mph 24.1 mph 74 % 0.0 in
13:15 7.6 °F 3.1 °F 1012.4 in SSW 12.9 mph 27.4 mph 73 % 0.0 in
13:30 7.7 °F 3.4 °F 1012.1 in SSW 12.9 mph 30.6 mph 74 % 0.0 in
13:45 7.7 °F 2.6 °F 1011.7 in SSW 14.5 mph 32.2 mph 70 % 0.0 in
14:00 7.3 °F 2.6 °F 1011.4 in SSW 17.7 mph 38.6 mph 72 % 0.0 in
14:15 7.2 °F 3.1 °F 1011.4 in SSW 16.1 mph 40.2 mph 75 % 0.0 in
14:30 6.9 °F 2.6 °F 1011.4 in SSW 14.5 mph 38.6 mph 74 % 0.0 in
14:45 5.8 °F 2.9 °F 1012.1 in SSW 14.5 mph 33.8 mph 82 % 0.0 in
15:00 5.3 °F 2.2 °F 1011.7 in SSW 17.7 mph 51.5 mph 80 % 0.0 in
15:15 5.3 °F 2.5 °F 1011.4 in SSW 17.7 mph 38.6 mph 82 % 0.0 in
15:30 5.4 °F 2.6 °F 1011.1 in SSW 17.7 mph 41.8 mph 82 % 0.0 in
15:45 5.7 °F 2.7 °F 1010.7 in SSW 16.1 mph 38.6 mph 81 % 0.0 in
16:00 5.9 °F 2.8 °F 1010.4 in SSW 19.3 mph 41.8 mph 80 % 0.0 in
16:15 6.2 °F 3.0 °F 1010.4 in SSW 20.9 mph 51.5 mph 80 % 0.0 in
16:30 6.5 °F 3.3 °F 1010.4 in SSW 19.3 mph 46.7 mph 80 % 0.0 in
16:45 6.7 °F 3.2 °F 1010.0 in SSW 19.3 mph 45.1 mph 78 % 0.0 in
17:00 6.6 °F 3.0 °F 1009.7 in SSW 12.9 mph 35.4 mph 78 % 0.0 in
17:15 6.8 °F 3.1 °F 1009.7 in SSW 17.7 mph 40.2 mph 77 % 0.0 in
17:30 7.2 °F 3.0 °F 1009.4 in SSW 22.5 mph 49.9 mph 75 % 0.0 in
17:45 7.2 °F 3.0 °F 1009.0 in SSW 19.3 mph 41.8 mph 75 % 0.0 in
18:00 7.1 °F 3.0 °F 1009.0 in SSW 17.7 mph 38.6 mph 75 % 0.0 in
18:15 7.1 °F 3.0 °F 1009.0 in SSW 17.7 mph 38.6 mph 75 % 0.0 in
18:30 7.0 °F 2.9 °F 1008.7 in SSW 16.1 mph 38.6 mph 75 % 0.0 in
18:45 6.8 °F 2.7 °F 1008.4 in SSW 17.7 mph 38.6 mph 75 % 0.0 in
19:00 6.7 °F 2.7 °F 1008.4 in SSW 16.1 mph 35.4 mph 76 % 0.0 in
19:15 6.5 °F 2.6 °F 1008.0 in SSW 14.5 mph 32.2 mph 76 % 0.0 in
19:30 6.4 °F 2.5 °F 1008.0 in SSW 12.9 mph 35.4 mph 76 % 0.0 in
19:45 6.3 °F 2.5 °F 1007.7 in SSW 12.9 mph 32.2 mph 77 % 0.0 in
20:00 6.2 °F 2.4 °F 1007.3 in SSW 11.3 mph 25.7 mph 77 % 0.0 in
20:15 6.0 °F 2.3 °F 1007.3 in SSW 12.9 mph 29.0 mph 77 % 0.0 in
20:30 5.9 °F 2.2 °F 1007.3 in SSW 12.9 mph 27.4 mph 77 % 0.0 in
20:45 5.8 °F 2.2 °F 1007.0 in South 11.3 mph 22.5 mph 78 % 0.0 in
21:00 5.7 °F 2.1 °F 1007.0 in SSW 12.9 mph 29.0 mph 78 % 0.0 in
21:15 5.4 °F 2.1 °F 1007.0 in SSW 9.7 mph 30.6 mph 79 % 0.0 in
21:30 5.3 °F 2.1 °F 1007.0 in SSW 9.7 mph 19.3 mph 80 % 0.0 in
21:45 5.3 °F 2.3 °F 1006.7 in SSW 11.3 mph 25.7 mph 81 % 0.0 in
22:00 5.2 °F 2.2 °F 1006.7 in SSW 8.0 mph 17.7 mph 81 % 0.0 in
22:15 5.3 °F 2.3 °F 1006.7 in SSW 8.0 mph 20.9 mph 81 % 0.0 in
22:30 5.3 °F 2.3 °F 1006.7 in SSW 8.0 mph 17.7 mph 81 % 0.0 in
22:45 5.1 °F 2.3 °F 1006.7 in SSW 8.0 mph 19.3 mph 82 % 0.0 in
23:00 4.9 °F 2.3 °F 1006.7 in SSW 8.0 mph 12.9 mph 83 % 0.0 in
23:15 4.9 °F 2.2 °F 1006.3 in SSW 8.0 mph 19.3 mph 83 % 0.0 in
23:30 4.8 °F 2.3 °F 1006.3 in SSW 8.0 mph 16.1 mph 84 % 0.0 in
23:45 4.7 °F 2.2 °F 1006.3 in SSW 6.4 mph 17.7 mph 84 % 0.0 in
Esan sääasema
Terveisin Weather Underground - 2.75 mb

Alkuperäinen skripti  Jim McMurry - jmcmurry@mwt.net Sovitettu myös templatelle  Wim van der Kuil - Leuven-Template.eu

Laitteet joita käytämme:

Sääasema
Davis VP2

Sääasemaohjelma
Cumulus

Sääaseman tietokone
Asus EeePC

Palveluntarjoaja
Suncomet

Davis VP2

Cumulus

Asus EeePC

Suncomet